sensor_id;sensor_type;location;lat;lon;timestamp;P1;durP1;ratioP1;P2;durP2;ratioP2
60436;SDS011;46289;51.992;4.498;2022-09-12T00:01:05;18.90;;;11.73;;
60436;SDS011;46289;51.992;4.498;2022-09-12T00:03:39;20.02;;;12.35;;
60436;SDS011;46289;51.992;4.498;2022-09-12T00:06:09;18.60;;;11.68;;
60436;SDS011;46289;51.992;4.498;2022-09-12T00:08:47;19.63;;;12.30;;
60436;SDS011;46289;51.992;4.498;2022-09-12T00:11:17;17.88;;;11.93;;
60436;SDS011;46289;51.992;4.498;2022-09-12T00:13:49;20.13;;;12.07;;
60436;SDS011;46289;51.992;4.498;2022-09-12T00:16:21;20.57;;;12.70;;
60436;SDS011;46289;51.992;4.498;2022-09-12T00:18:51;19.83;;;11.73;;
60436;SDS011;46289;51.992;4.498;2022-09-12T00:21:21;19.52;;;11.32;;
60436;SDS011;46289;51.992;4.498;2022-09-12T00:23:51;19.10;;;11.77;;
60436;SDS011;46289;51.992;4.498;2022-09-12T00:26:21;19.95;;;11.02;;
60436;SDS011;46289;51.992;4.498;2022-09-12T00:28:54;16.27;;;9.98;;
60436;SDS011;46289;51.992;4.498;2022-09-12T00:31:25;18.42;;;11.82;;
60436;SDS011;46289;51.992;4.498;2022-09-12T00:33:56;17.13;;;10.48;;
60436;SDS011;46289;51.992;4.498;2022-09-12T00:36:28;21.88;;;12.25;;
60436;SDS011;46289;51.992;4.498;2022-09-12T00:38:58;20.77;;;11.70;;
60436;SDS011;46289;51.992;4.498;2022-09-12T00:41:29;22.30;;;11.95;;
60436;SDS011;46289;51.992;4.498;2022-09-12T00:47:03;20.67;;;11.00;;
60436;SDS011;46289;51.992;4.498;2022-09-12T00:49:39;17.20;;;11.35;;
60436;SDS011;46289;51.992;4.498;2022-09-12T00:52:14;18.83;;;10.93;;
60436;SDS011;46289;51.992;4.498;2022-09-12T00:54:48;20.60;;;11.77;;
60436;SDS011;46289;51.992;4.498;2022-09-12T00:57:22;19.65;;;11.43;;
60436;SDS011;46289;51.992;4.498;2022-09-12T00:59:58;18.02;;;11.25;;
60436;SDS011;46289;51.992;4.498;2022-09-12T01:02:35;22.70;;;11.88;;
60436;SDS011;46289;51.992;4.498;2022-09-12T01:05:05;17.63;;;10.45;;
60436;SDS011;46289;51.992;4.498;2022-09-12T01:07:36;19.92;;;11.88;;
60436;SDS011;46289;51.992;4.498;2022-09-12T01:10:07;20.52;;;11.90;;
60436;SDS011;46289;51.992;4.498;2022-09-12T01:12:38;18.77;;;11.07;;
60436;SDS011;46289;51.992;4.498;2022-09-12T01:15:10;20.15;;;11.13;;
60436;SDS011;46289;51.992;4.498;2022-09-12T01:17:46;21.20;;;12.88;;
60436;SDS011;46289;51.992;4.498;2022-09-12T01:20:33;22.67;;;12.88;;
60436;SDS011;46289;51.992;4.498;2022-09-12T01:26:16;22.25;;;11.85;;
60436;SDS011;46289;51.992;4.498;2022-09-12T01:29:10;18.75;;;11.88;;
60436;SDS011;46289;51.992;4.498;2022-09-12T01:31:54;20.08;;;11.18;;
60436;SDS011;46289;51.992;4.498;2022-09-12T01:34:34;19.33;;;10.48;;
60436;SDS011;46289;51.992;4.498;2022-09-12T01:37:14;22.05;;;11.52;;
60436;SDS011;46289;51.992;4.498;2022-09-12T01:39:49;18.23;;;10.75;;
60436;SDS011;46289;51.992;4.498;2022-09-12T01:42:29;22.10;;;12.55;;
60436;SDS011;46289;51.992;4.498;2022-09-12T01:45:06;21.90;;;11.55;;
60436;SDS011;46289;51.992;4.498;2022-09-12T01:47:43;19.55;;;11.90;;
60436;SDS011;46289;51.992;4.498;2022-09-12T01:50:18;19.50;;;12.65;;
60436;SDS011;46289;51.992;4.498;2022-09-12T01:52:52;23.10;;;13.15;;
60436;SDS011;46289;51.992;4.498;2022-09-12T01:55:26;21.45;;;12.75;;
60436;SDS011;46289;51.992;4.498;2022-09-12T01:58:01;23.80;;;13.35;;
60436;SDS011;46289;51.992;4.498;2022-09-12T02:00:34;23.00;;;12.10;;
60436;SDS011;46289;51.992;4.498;2022-09-12T02:03:13;24.92;;;13.75;;
60436;SDS011;46289;51.992;4.498;2022-09-12T02:05:49;27.38;;;14.15;;
60436;SDS011;46289;51.992;4.498;2022-09-12T02:08:24;25.08;;;14.35;;
60436;SDS011;46289;51.992;4.498;2022-09-12T02:10:58;24.45;;;13.05;;
60436;SDS011;46289;51.992;4.498;2022-09-12T02:13:33;24.73;;;13.18;;
60436;SDS011;46289;51.992;4.498;2022-09-12T02:16:06;25.27;;;13.77;;
60436;SDS011;46289;51.992;4.498;2022-09-12T02:18:42;27.65;;;14.75;;
60436;SDS011;46289;51.992;4.498;2022-09-12T02:21:15;25.85;;;13.48;;
60436;SDS011;46289;51.992;4.498;2022-09-12T02:23:48;24.88;;;14.45;;
60436;SDS011;46289;51.992;4.498;2022-09-12T02:26:27;24.92;;;13.88;;
60436;SDS011;46289;51.992;4.498;2022-09-12T02:28:59;23.15;;;12.68;;
60436;SDS011;46289;51.992;4.498;2022-09-12T02:31:30;25.58;;;15.07;;
60436;SDS011;46289;51.992;4.498;2022-09-12T02:34:12;24.73;;;13.07;;
60436;SDS011;46289;51.992;4.498;2022-09-12T02:36:57;23.75;;;12.95;;
60436;SDS011;46289;51.992;4.498;2022-09-12T02:39:33;28.58;;;13.80;;
60436;SDS011;46289;51.992;4.498;2022-09-12T02:42:09;26.98;;;13.13;;
60436;SDS011;46289;51.992;4.498;2022-09-12T02:44:40;25.40;;;13.75;;
60436;SDS011;46289;51.992;4.498;2022-09-12T02:47:13;26.60;;;13.98;;
60436;SDS011;46289;51.992;4.498;2022-09-12T02:49:49;24.02;;;12.85;;
60436;SDS011;46289;51.992;4.498;2022-09-12T02:52:20;27.08;;;15.18;;
60436;SDS011;46289;51.992;4.498;2022-09-12T02:54:50;26.80;;;14.48;;
60436;SDS011;46289;51.992;4.498;2022-09-12T02:57:20;26.55;;;14.73;;
60436;SDS011;46289;51.992;4.498;2022-09-12T02:59:50;28.23;;;14.57;;
60436;SDS011;46289;51.992;4.498;2022-09-12T03:02:25;29.02;;;15.55;;
60436;SDS011;46289;51.992;4.498;2022-09-12T03:05:06;28.35;;;14.27;;
60436;SDS011;46289;51.992;4.498;2022-09-12T03:08:08;27.05;;;14.07;;
60436;SDS011;46289;51.992;4.498;2022-09-12T03:11:08;27.90;;;14.13;;
60436;SDS011;46289;51.992;4.498;2022-09-12T03:13:58;25.50;;;13.50;;
60436;SDS011;46289;51.992;4.498;2022-09-12T03:16:37;29.65;;;15.90;;
60436;SDS011;46289;51.992;4.498;2022-09-12T03:19:14;30.52;;;14.65;;
60436;SDS011;46289;51.992;4.498;2022-09-12T03:21:57;26.17;;;13.25;;
60436;SDS011;46289;51.992;4.498;2022-09-12T03:24:34;26.38;;;12.32;;
60436;SDS011;46289;51.992;4.498;2022-09-12T03:27:09;28.50;;;14.20;;
60436;SDS011;46289;51.992;4.498;2022-09-12T03:29:44;26.67;;;13.40;;
60436;SDS011;46289;51.992;4.498;2022-09-12T03:32:16;26.02;;;14.50;;
60436;SDS011;46289;51.992;4.498;2022-09-12T03:34:46;24.63;;;13.30;;
60436;SDS011;46289;51.992;4.498;2022-09-12T03:37:18;26.90;;;13.95;;
60436;SDS011;46289;51.992;4.498;2022-09-12T03:39:48;27.50;;;14.50;;
60436;SDS011;46289;51.992;4.498;2022-09-12T03:42:17;27.40;;;13.95;;
60436;SDS011;46289;51.992;4.498;2022-09-12T03:44:47;25.55;;;13.43;;
60436;SDS011;46289;51.992;4.498;2022-09-12T03:47:17;29.35;;;15.07;;
60436;SDS011;46289;51.992;4.498;2022-09-12T03:49:46;26.38;;;13.32;;
60436;SDS011;46289;51.992;4.498;2022-09-12T03:52:20;24.48;;;11.95;;
60436;SDS011;46289;51.992;4.498;2022-09-12T03:54:50;28.17;;;15.15;;
60436;SDS011;46289;51.992;4.498;2022-09-12T03:57:21;25.80;;;15.15;;
60436;SDS011;46289;51.992;4.498;2022-09-12T03:59:50;24.23;;;14.02;;
60436;SDS011;46289;51.992;4.498;2022-09-12T04:02:20;25.58;;;13.75;;
60436;SDS011;46289;51.992;4.498;2022-09-12T04:04:50;27.35;;;13.93;;
60436;SDS011;46289;51.992;4.498;2022-09-12T04:07:23;25.20;;;13.98;;
60436;SDS011;46289;51.992;4.498;2022-09-12T04:09:52;27.73;;;14.48;;
60436;SDS011;46289;51.992;4.498;2022-09-12T04:12:22;24.83;;;14.32;;
60436;SDS011;46289;51.992;4.498;2022-09-12T04:14:51;29.65;;;14.55;;
60436;SDS011;46289;51.992;4.498;2022-09-12T04:17:22;25.77;;;14.68;;
60436;SDS011;46289;51.992;4.498;2022-09-12T04:19:51;26.58;;;14.90;;
60436;SDS011;46289;51.992;4.498;2022-09-12T04:22:24;26.55;;;13.45;;
60436;SDS011;46289;51.992;4.498;2022-09-12T04:24:55;27.38;;;14.32;;
60436;SDS011;46289;51.992;4.498;2022-09-12T04:27:25;29.38;;;14.27;;
60436;SDS011;46289;51.992;4.498;2022-09-12T04:29:56;24.45;;;12.57;;
60436;SDS011;46289;51.992;4.498;2022-09-12T04:32:28;26.27;;;13.02;;
60436;SDS011;46289;51.992;4.498;2022-09-12T04:34:58;27.48;;;14.68;;
60436;SDS011;46289;51.992;4.498;2022-09-12T04:37:31;26.60;;;13.90;;
60436;SDS011;46289;51.992;4.498;2022-09-12T04:40:01;24.13;;;13.75;;
60436;SDS011;46289;51.992;4.498;2022-09-12T04:42:31;28.75;;;14.60;;
60436;SDS011;46289;51.992;4.498;2022-09-12T04:45:01;25.83;;;12.85;;
60436;SDS011;46289;51.992;4.498;2022-09-12T04:47:31;25.10;;;14.63;;
60436;SDS011;46289;51.992;4.498;2022-09-12T04:50:01;25.13;;;13.45;;
60436;SDS011;46289;51.992;4.498;2022-09-12T04:52:33;30.13;;;14.20;;
60436;SDS011;46289;51.992;4.498;2022-09-12T04:55:03;26.85;;;14.32;;
60436;SDS011;46289;51.992;4.498;2022-09-12T04:57:34;26.00;;;12.85;;
60436;SDS011;46289;51.992;4.498;2022-09-12T05:00:04;25.27;;;13.80;;
60436;SDS011;46289;51.992;4.498;2022-09-12T05:02:39;24.55;;;14.35;;
60436;SDS011;46289;51.992;4.498;2022-09-12T05:05:09;23.70;;;12.82;;
60436;SDS011;46289;51.992;4.498;2022-09-12T05:07:41;28.35;;;14.27;;
60436;SDS011;46289;51.992;4.498;2022-09-12T05:10:11;26.20;;;13.68;;
60436;SDS011;46289;51.992;4.498;2022-09-12T05:12:41;30.23;;;15.40;;
60436;SDS011;46289;51.992;4.498;2022-09-12T05:15:10;32.67;;;16.02;;
60436;SDS011;46289;51.992;4.498;2022-09-12T05:17:40;27.80;;;14.60;;
60436;SDS011;46289;51.992;4.498;2022-09-12T05:20:10;31.15;;;14.85;;
60436;SDS011;46289;51.992;4.498;2022-09-12T05:22:43;30.52;;;16.13;;
60436;SDS011;46289;51.992;4.498;2022-09-12T05:25:12;27.63;;;14.18;;
60436;SDS011;46289;51.992;4.498;2022-09-12T05:27:42;31.25;;;14.77;;
60436;SDS011;46289;51.992;4.498;2022-09-12T05:30:15;32.42;;;15.95;;
60436;SDS011;46289;51.992;4.498;2022-09-12T05:32:45;30.00;;;15.27;;
60436;SDS011;46289;51.992;4.498;2022-09-12T05:35:15;30.17;;;15.55;;
60436;SDS011;46289;51.992;4.498;2022-09-12T05:37:48;30.85;;;15.63;;
60436;SDS011;46289;51.992;4.498;2022-09-12T05:40:17;31.45;;;16.30;;
60436;SDS011;46289;51.992;4.498;2022-09-12T05:42:47;33.03;;;15.10;;
60436;SDS011;46289;51.992;4.498;2022-09-12T05:45:17;31.67;;;16.17;;
60436;SDS011;46289;51.992;4.498;2022-09-12T05:47:47;33.40;;;16.60;;
60436;SDS011;46289;51.992;4.498;2022-09-12T05:50:16;35.03;;;17.20;;
60436;SDS011;46289;51.992;4.498;2022-09-12T05:52:49;33.67;;;16.50;;
60436;SDS011;46289;51.992;4.498;2022-09-12T05:55:20;35.80;;;18.00;;
60436;SDS011;46289;51.992;4.498;2022-09-12T05:57:52;34.28;;;16.63;;
60436;SDS011;46289;51.992;4.498;2022-09-12T06:00:21;36.97;;;17.55;;
60436;SDS011;46289;51.992;4.498;2022-09-12T06:02:56;35.22;;;17.25;;
60436;SDS011;46289;51.992;4.498;2022-09-12T06:05:26;38.40;;;16.65;;
60436;SDS011;46289;51.992;4.498;2022-09-12T06:08:01;36.45;;;17.27;;
60436;SDS011;46289;51.992;4.498;2022-09-12T06:10:31;35.35;;;19.60;;
60436;SDS011;46289;51.992;4.498;2022-09-12T06:13:00;36.80;;;17.20;;
60436;SDS011;46289;51.992;4.498;2022-09-12T06:15:31;38.80;;;18.65;;
60436;SDS011;46289;51.992;4.498;2022-09-12T06:18:00;49.80;;;22.33;;
60436;SDS011;46289;51.992;4.498;2022-09-12T06:20:30;44.67;;;22.10;;
60436;SDS011;46289;51.992;4.498;2022-09-12T06:23:03;42.35;;;18.85;;
60436;SDS011;46289;51.992;4.498;2022-09-12T06:25:33;35.92;;;19.95;;
60436;SDS011;46289;51.992;4.498;2022-09-12T06:28:02;40.17;;;20.55;;
60436;SDS011;46289;51.992;4.498;2022-09-12T06:30:33;42.42;;;18.92;;
60436;SDS011;46289;51.992;4.498;2022-09-12T06:33:03;41.58;;;21.80;;
60436;SDS011;46289;51.992;4.498;2022-09-12T06:35:34;39.55;;;19.90;;
60436;SDS011;46289;51.992;4.498;2022-09-12T06:38:07;39.42;;;20.55;;
60436;SDS011;46289;51.992;4.498;2022-09-12T06:40:39;39.55;;;21.02;;
60436;SDS011;46289;51.992;4.498;2022-09-12T06:43:10;41.53;;;22.45;;
60436;SDS011;46289;51.992;4.498;2022-09-12T06:45:47;42.03;;;21.77;;
60436;SDS011;46289;51.992;4.498;2022-09-12T06:48:17;43.33;;;23.33;;
60436;SDS011;46289;51.992;4.498;2022-09-12T06:50:53;40.22;;;20.52;;
60436;SDS011;46289;51.992;4.498;2022-09-12T06:53:28;40.47;;;20.30;;
60436;SDS011;46289;51.992;4.498;2022-09-12T06:55:59;38.60;;;20.45;;
60436;SDS011;46289;51.992;4.498;2022-09-12T06:58:30;45.47;;;22.48;;
60436;SDS011;46289;51.992;4.498;2022-09-12T07:01:00;47.85;;;21.40;;
60436;SDS011;46289;51.992;4.498;2022-09-12T07:03:31;40.38;;;20.42;;
60436;SDS011;46289;51.992;4.498;2022-09-12T07:06:02;39.50;;;21.35;;
60436;SDS011;46289;51.992;4.498;2022-09-12T07:08:35;39.20;;;20.63;;
60436;SDS011;46289;51.992;4.498;2022-09-12T07:11:09;42.63;;;21.00;;
60436;SDS011;46289;51.992;4.498;2022-09-12T07:13:41;43.33;;;21.60;;
60436;SDS011;46289;51.992;4.498;2022-09-12T07:16:12;39.83;;;20.60;;
60436;SDS011;46289;51.992;4.498;2022-09-12T07:18:48;41.13;;;20.73;;
60436;SDS011;46289;51.992;4.498;2022-09-12T07:21:19;33.25;;;19.35;;
60436;SDS011;46289;51.992;4.498;2022-09-12T07:23:52;41.28;;;21.50;;
60436;SDS011;46289;51.992;4.498;2022-09-12T07:26:23;34.83;;;19.08;;
60436;SDS011;46289;51.992;4.498;2022-09-12T07:28:56;41.35;;;19.88;;
60436;SDS011;46289;51.992;4.498;2022-09-12T07:31:46;36.53;;;18.70;;
60436;SDS011;46289;51.992;4.498;2022-09-12T07:34:16;34.30;;;18.42;;
60436;SDS011;46289;51.992;4.498;2022-09-12T07:36:46;35.08;;;18.88;;
60436;SDS011;46289;51.992;4.498;2022-09-12T07:39:18;33.75;;;17.52;;
60436;SDS011;46289;51.992;4.498;2022-09-12T07:41:48;36.43;;;18.60;;
60436;SDS011;46289;51.992;4.498;2022-09-12T07:44:17;33.60;;;17.27;;
60436;SDS011;46289;51.992;4.498;2022-09-12T07:46:48;31.73;;;18.15;;
60436;SDS011;46289;51.992;4.498;2022-09-12T07:49:18;34.25;;;17.50;;
60436;SDS011;46289;51.992;4.498;2022-09-12T07:51:48;33.25;;;17.83;;
60436;SDS011;46289;51.992;4.498;2022-09-12T07:54:21;34.00;;;18.77;;
60436;SDS011;46289;51.992;4.498;2022-09-12T07:59:22;33.28;;;18.20;;
60436;SDS011;46289;51.992;4.498;2022-09-12T08:02:12;28.92;;;17.02;;
60436;SDS011;46289;51.992;4.498;2022-09-12T08:04:43;31.45;;;17.30;;
60436;SDS011;46289;51.992;4.498;2022-09-12T08:07:13;34.65;;;17.83;;
60436;SDS011;46289;51.992;4.498;2022-09-12T08:09:47;33.63;;;17.27;;
60436;SDS011;46289;51.992;4.498;2022-09-12T08:12:18;32.53;;;16.52;;
60436;SDS011;46289;51.992;4.498;2022-09-12T08:14:48;30.63;;;16.33;;
60436;SDS011;46289;51.992;4.498;2022-09-12T08:17:18;30.73;;;14.95;;
60436;SDS011;46289;51.992;4.498;2022-09-12T08:19:47;31.30;;;16.05;;
60436;SDS011;46289;51.992;4.498;2022-09-12T08:22:18;24.25;;;13.50;;
60436;SDS011;46289;51.992;4.498;2022-09-12T08:24:50;32.35;;;12.43;;
60436;SDS011;46289;51.992;4.498;2022-09-12T08:27:21;18.93;;;10.50;;
60436;SDS011;46289;51.992;4.498;2022-09-12T08:29:50;18.25;;;11.10;;
60436;SDS011;46289;51.992;4.498;2022-09-12T08:32:20;20.83;;;11.20;;
60436;SDS011;46289;51.992;4.498;2022-09-12T08:34:50;23.33;;;12.15;;
60436;SDS011;46289;51.992;4.498;2022-09-12T08:37:20;21.45;;;10.35;;
60436;SDS011;46289;51.992;4.498;2022-09-12T08:39:53;18.52;;;10.38;;
60436;SDS011;46289;51.992;4.498;2022-09-12T08:42:24;17.53;;;11.37;;
60436;SDS011;46289;51.992;4.498;2022-09-12T08:45:16;19.13;;;9.45;;
60436;SDS011;46289;51.992;4.498;2022-09-12T08:47:50;17.48;;;9.00;;
60436;SDS011;46289;51.992;4.498;2022-09-12T08:50:21;17.10;;;9.05;;
60436;SDS011;46289;51.992;4.498;2022-09-12T08:52:52;16.15;;;8.23;;
60436;SDS011;46289;51.992;4.498;2022-09-12T08:55:36;14.77;;;8.57;;
60436;SDS011;46289;51.992;4.498;2022-09-12T08:58:11;13.30;;;7.60;;
60436;SDS011;46289;51.992;4.498;2022-09-12T09:06:20;14.15;;;7.63;;
60436;SDS011;46289;51.992;4.498;2022-09-12T09:09:02;13.40;;;7.72;;
60436;SDS011;46289;51.992;4.498;2022-09-12T09:11:44;16.13;;;8.73;;
60436;SDS011;46289;51.992;4.498;2022-09-12T09:14:29;13.80;;;7.63;;
60436;SDS011;46289;51.992;4.498;2022-09-12T09:17:20;13.90;;;7.85;;
60436;SDS011;46289;51.992;4.498;2022-09-12T09:19:56;12.15;;;6.88;;
60436;SDS011;46289;51.992;4.498;2022-09-12T09:22:33;13.68;;;6.95;;
60436;SDS011;46289;51.992;4.498;2022-09-12T09:27:40;12.88;;;7.18;;
60436;SDS011;46289;51.992;4.498;2022-09-12T09:30:14;12.88;;;7.13;;
60436;SDS011;46289;51.992;4.498;2022-09-12T09:32:50;11.13;;;5.30;;
60436;SDS011;46289;51.992;4.498;2022-09-12T09:35:23;10.50;;;5.93;;
60436;SDS011;46289;51.992;4.498;2022-09-12T09:38:04;8.95;;;5.70;;
60436;SDS011;46289;51.992;4.498;2022-09-12T09:40:47;12.15;;;5.32;;
60436;SDS011;46289;51.992;4.498;2022-09-12T09:43:26;11.50;;;5.78;;
60436;SDS011;46289;51.992;4.498;2022-09-12T09:45:56;12.50;;;5.83;;
60436;SDS011;46289;51.992;4.498;2022-09-12T09:48:27;11.10;;;5.68;;
60436;SDS011;46289;51.992;4.498;2022-09-12T09:51:01;9.15;;;4.75;;
60436;SDS011;46289;51.992;4.498;2022-09-12T09:53:34;9.70;;;5.65;;
60436;SDS011;46289;51.992;4.498;2022-09-12T09:56:08;8.75;;;5.18;;
60436;SDS011;46289;51.992;4.498;2022-09-12T09:58:51;10.90;;;5.20;;
60436;SDS011;46289;51.992;4.498;2022-09-12T10:01:20;9.20;;;4.93;;
60436;SDS011;46289;51.992;4.498;2022-09-12T10:03:51;11.73;;;5.10;;
60436;SDS011;46289;51.992;4.498;2022-09-12T10:06:23;10.48;;;4.78;;
60436;SDS011;46289;51.992;4.498;2022-09-12T10:11:51;6.70;;;3.85;;
60436;SDS011;46289;51.992;4.498;2022-09-12T10:14:38;8.90;;;4.80;;
60436;SDS011;46289;51.992;4.498;2022-09-12T10:17:26;8.95;;;4.60;;
60436;SDS011;46289;51.992;4.498;2022-09-12T10:20:00;8.40;;;4.53;;
60436;SDS011;46289;51.992;4.498;2022-09-12T10:22:47;7.80;;;4.90;;
60436;SDS011;46289;51.992;4.498;2022-09-12T10:25:17;9.15;;;4.72;;
60436;SDS011;46289;51.992;4.498;2022-09-12T10:27:51;8.27;;;4.55;;
60436;SDS011;46289;51.992;4.498;2022-09-12T10:30:26;8.75;;;4.25;;
60436;SDS011;46289;51.992;4.498;2022-09-12T10:32:58;9.00;;;5.10;;
60436;SDS011;46289;51.992;4.498;2022-09-12T10:35:43;8.27;;;4.50;;
60436;SDS011;46289;51.992;4.498;2022-09-12T10:38:18;9.13;;;5.07;;
60436;SDS011;46289;51.992;4.498;2022-09-12T10:40:55;7.65;;;4.53;;
60436;SDS011;46289;51.992;4.498;2022-09-12T10:43:29;8.73;;;5.78;;
60436;SDS011;46289;51.992;4.498;2022-09-12T10:52:15;10.60;;;5.65;;
60436;SDS011;46289;51.992;4.498;2022-09-12T10:54:49;8.55;;;4.93;;
60436;SDS011;46289;51.992;4.498;2022-09-12T11:00:18;12.68;;;5.85;;
60436;SDS011;46289;51.992;4.498;2022-09-12T11:03:01;11.40;;;5.95;;
60436;SDS011;46289;51.992;4.498;2022-09-12T11:05:44;12.48;;;5.32;;
60436;SDS011;46289;51.992;4.498;2022-09-12T11:08:30;8.95;;;4.75;;
60436;SDS011;46289;51.992;4.498;2022-09-12T11:11:27;8.95;;;5.43;;
60436;SDS011;46289;51.992;4.498;2022-09-12T11:17:11;9.82;;;5.13;;
60436;SDS011;46289;51.992;4.498;2022-09-12T11:22:35;9.00;;;5.32;;
60436;SDS011;46289;51.992;4.498;2022-09-12T11:25:26;10.10;;;5.03;;
60436;SDS011;46289;51.992;4.498;2022-09-12T11:28:13;10.13;;;5.53;;
60436;SDS011;46289;51.992;4.498;2022-09-12T11:30:56;7.65;;;4.20;;
60436;SDS011;46289;51.992;4.498;2022-09-12T11:33:40;7.68;;;4.35;;
60436;SDS011;46289;51.992;4.498;2022-09-12T11:36:19;8.30;;;4.53;;
60436;SDS011;46289;51.992;4.498;2022-09-12T11:39:00;6.72;;;3.78;;
60436;SDS011;46289;51.992;4.498;2022-09-12T11:41:36;7.97;;;4.75;;
60436;SDS011;46289;51.992;4.498;2022-09-12T11:44:14;8.23;;;4.50;;
60436;SDS011;46289;51.992;4.498;2022-09-12T11:46:47;8.52;;;4.03;;
60436;SDS011;46289;51.992;4.498;2022-09-12T11:49:19;8.18;;;4.75;;
60436;SDS011;46289;51.992;4.498;2022-09-12T11:52:05;7.75;;;4.43;;
60436;SDS011;46289;51.992;4.498;2022-09-12T11:54:43;6.72;;;4.03;;
60436;SDS011;46289;51.992;4.498;2022-09-12T11:57:19;7.90;;;4.43;;
60436;SDS011;46289;51.992;4.498;2022-09-12T11:59:57;7.18;;;4.22;;
60436;SDS011;46289;51.992;4.498;2022-09-12T12:02:34;8.23;;;4.35;;
60436;SDS011;46289;51.992;4.498;2022-09-12T12:05:15;6.70;;;4.47;;
60436;SDS011;46289;51.992;4.498;2022-09-12T12:07:53;8.57;;;4.35;;
60436;SDS011;46289;51.992;4.498;2022-09-12T12:10:26;7.63;;;4.18;;
60436;SDS011;46289;51.992;4.498;2022-09-12T12:13:03;8.15;;;4.60;;
60436;SDS011;46289;51.992;4.498;2022-09-12T12:15:39;8.60;;;4.78;;
60436;SDS011;46289;51.992;4.498;2022-09-12T12:18:16;9.50;;;4.63;;
60436;SDS011;46289;51.992;4.498;2022-09-12T12:20:48;8.07;;;4.43;;
60436;SDS011;46289;51.992;4.498;2022-09-12T12:23:28;7.35;;;4.57;;
60436;SDS011;46289;51.992;4.498;2022-09-12T12:26:00;10.13;;;4.72;;
60436;SDS011;46289;51.992;4.498;2022-09-12T12:31:28;9.70;;;5.25;;
60436;SDS011;46289;51.992;4.498;2022-09-12T12:36:54;8.50;;;4.35;;
60436;SDS011;46289;51.992;4.498;2022-09-12T12:42:58;10.10;;;4.60;;
60436;SDS011;46289;51.992;4.498;2022-09-12T12:48:50;7.55;;;4.78;;
60436;SDS011;46289;51.992;4.498;2022-09-12T12:51:30;8.60;;;4.55;;
60436;SDS011;46289;51.992;4.498;2022-09-12T12:54:26;9.90;;;5.72;;
60436;SDS011;46289;51.992;4.498;2022-09-12T12:57:02;7.70;;;4.57;;
60436;SDS011;46289;51.992;4.498;2022-09-12T12:59:43;8.60;;;4.80;;
60436;SDS011;46289;51.992;4.498;2022-09-12T13:02:17;8.75;;;5.18;;
60436;SDS011;46289;51.992;4.498;2022-09-12T13:04:50;9.50;;;5.05;;
60436;SDS011;46289;51.992;4.498;2022-09-12T13:07:24;11.13;;;4.85;;
60436;SDS011;46289;51.992;4.498;2022-09-12T13:09:58;9.32;;;4.70;;
60436;SDS011;46289;51.992;4.498;2022-09-12T13:12:29;9.10;;;4.72;;
60436;SDS011;46289;51.992;4.498;2022-09-12T13:15:27;12.27;;;4.63;;
60436;SDS011;46289;51.992;4.498;2022-09-12T13:18:17;11.38;;;5.68;;
60436;SDS011;46289;51.992;4.498;2022-09-12T13:20:52;9.25;;;5.55;;
60436;SDS011;46289;51.992;4.498;2022-09-12T13:23:27;9.10;;;4.90;;
60436;SDS011;46289;51.992;4.498;2022-09-12T13:26:00;8.45;;;4.45;;
60436;SDS011;46289;51.992;4.498;2022-09-12T13:31:09;11.52;;;4.97;;
60436;SDS011;46289;51.992;4.498;2022-09-12T13:33:44;9.27;;;4.85;;
60436;SDS011;46289;51.992;4.498;2022-09-12T13:36:23;9.93;;;4.90;;
60436;SDS011;46289;51.992;4.498;2022-09-12T13:39:05;7.07;;;4.10;;
60436;SDS011;46289;51.992;4.498;2022-09-12T13:41:50;6.70;;;3.72;;
60436;SDS011;46289;51.992;4.498;2022-09-12T13:44:40;10.13;;;5.25;;
60436;SDS011;46289;51.992;4.498;2022-09-12T13:47:23;8.23;;;4.15;;
60436;SDS011;46289;51.992;4.498;2022-09-12T13:49:56;9.00;;;4.88;;
60436;SDS011;46289;51.992;4.498;2022-09-12T13:52:27;8.30;;;4.82;;
60436;SDS011;46289;51.992;4.498;2022-09-12T13:54:59;7.53;;;4.60;;
60436;SDS011;46289;51.992;4.498;2022-09-12T13:57:34;15.43;;;5.72;;
60436;SDS011;46289;51.992;4.498;2022-09-12T14:00:10;7.38;;;4.15;;
60436;SDS011;46289;51.992;4.498;2022-09-12T14:02:48;10.07;;;4.85;;
60436;SDS011;46289;51.992;4.498;2022-09-12T14:05:38;10.52;;;4.57;;
60436;SDS011;46289;51.992;4.498;2022-09-12T14:08:10;9.63;;;4.82;;
60436;SDS011;46289;51.992;4.498;2022-09-12T14:10:43;7.50;;;3.80;;
60436;SDS011;46289;51.992;4.498;2022-09-12T14:13:17;8.32;;;4.38;;
60436;SDS011;46289;51.992;4.498;2022-09-12T14:15:49;7.15;;;3.80;;
60436;SDS011;46289;51.992;4.498;2022-09-12T14:18:24;7.82;;;3.90;;
60436;SDS011;46289;51.992;4.498;2022-09-12T14:20:55;9.00;;;4.00;;
60436;SDS011;46289;51.992;4.498;2022-09-12T14:23:27;6.60;;;4.10;;
60436;SDS011;46289;51.992;4.498;2022-09-12T14:25:59;6.45;;;3.53;;
60436;SDS011;46289;51.992;4.498;2022-09-12T14:28:33;8.10;;;4.03;;
60436;SDS011;46289;51.992;4.498;2022-09-12T14:31:04;7.35;;;3.60;;
60436;SDS011;46289;51.992;4.498;2022-09-12T14:33:47;7.72;;;3.88;;
60436;SDS011;46289;51.992;4.498;2022-09-12T14:36:20;7.75;;;3.92;;
60436;SDS011;46289;51.992;4.498;2022-09-12T14:38:53;8.23;;;3.58;;
60436;SDS011;46289;51.992;4.498;2022-09-12T14:41:27;6.32;;;3.72;;
60436;SDS011;46289;51.992;4.498;2022-09-12T14:43:59;6.28;;;3.85;;
60436;SDS011;46289;51.992;4.498;2022-09-12T14:46:34;8.15;;;4.32;;
60436;SDS011;46289;51.992;4.498;2022-09-12T14:49:08;7.68;;;3.88;;
60436;SDS011;46289;51.992;4.498;2022-09-12T14:51:47;5.85;;;3.40;;
60436;SDS011;46289;51.992;4.498;2022-09-12T14:54:35;5.78;;;3.47;;
60436;SDS011;46289;51.992;4.498;2022-09-12T14:57:28;6.55;;;3.60;;
60436;SDS011;46289;51.992;4.498;2022-09-12T15:02:47;7.60;;;4.32;;
60436;SDS011;46289;51.992;4.498;2022-09-12T15:05:24;6.43;;;3.72;;
60436;SDS011;46289;51.992;4.498;2022-09-12T15:07:56;8.63;;;4.47;;
60436;SDS011;46289;51.992;4.498;2022-09-12T15:10:28;7.07;;;3.95;;
60436;SDS011;46289;51.992;4.498;2022-09-12T15:13:13;8.52;;;4.00;;
60436;SDS011;46289;51.992;4.498;2022-09-12T15:15:46;5.85;;;3.90;;
60436;SDS011;46289;51.992;4.498;2022-09-12T15:18:17;7.55;;;4.30;;
60436;SDS011;46289;51.992;4.498;2022-09-12T15:20:51;6.25;;;3.63;;
60436;SDS011;46289;51.992;4.498;2022-09-12T15:23:28;7.10;;;3.88;;
60436;SDS011;46289;51.992;4.498;2022-09-12T15:26:01;9.45;;;5.05;;
60436;SDS011;46289;51.992;4.498;2022-09-12T15:28:32;8.10;;;4.55;;
60436;SDS011;46289;51.992;4.498;2022-09-12T15:31:04;7.45;;;4.68;;
60436;SDS011;46289;51.992;4.498;2022-09-12T15:33:36;8.20;;;4.63;;
60436;SDS011;46289;51.992;4.498;2022-09-12T15:36:13;10.90;;;5.00;;
60436;SDS011;46289;51.992;4.498;2022-09-12T15:38:45;11.15;;;7.32;;
60436;SDS011;46289;51.992;4.498;2022-09-12T15:41:16;8.98;;;4.93;;
60436;SDS011;46289;51.992;4.498;2022-09-12T15:43:48;8.10;;;4.78;;
60436;SDS011;46289;51.992;4.498;2022-09-12T15:46:18;6.32;;;4.25;;
60436;SDS011;46289;51.992;4.498;2022-09-12T15:48:48;7.03;;;4.13;;
60436;SDS011;46289;51.992;4.498;2022-09-12T15:51:21;7.75;;;4.55;;
60436;SDS011;46289;51.992;4.498;2022-09-12T15:53:51;6.57;;;3.95;;
60436;SDS011;46289;51.992;4.498;2022-09-12T15:56:20;7.88;;;4.60;;
60436;SDS011;46289;51.992;4.498;2022-09-12T15:58:50;11.07;;;5.32;;
60436;SDS011;46289;51.992;4.498;2022-09-12T16:01:25;9.30;;;5.07;;
60436;SDS011;46289;51.992;4.498;2022-09-12T16:03:56;8.70;;;4.30;;
60436;SDS011;46289;51.992;4.498;2022-09-12T16:06:28;9.70;;;6.43;;